Time;durP1;ratioP1;P1;durP2;ratioP2;P2;SDS_P1;SDS_P2;PMS_P1;PMS_P2;Temp;Humidity;BMP_temperature;BMP_pressure;BME280_temperature;BME280_humidity;BME280_pressure;Samples;Min_cycle;Max_cycle;Signal;HPM_P1;HPM_P2
2022/05/10 00:00:17;;;;;;;2.55;1.67;;;;;;;;;;4954275;28;20038;-79
2022/05/10 00:02:46;;;;;;;6.82;2.38;;;;;;;;;;4954683;28;20031;-80
2022/05/10 00:05:12;;;;;;;5.40;2.00;;;;;;;;;;4954841;29;20043;-79
2022/05/10 00:07:37;;;;;;;4.65;1.70;;;;;;;;;;4954326;28;20132;-79
2022/05/10 00:10:06;;;;;;;2.42;1.67;;;;;;;;;;4954506;29;20034;-80
2022/05/10 00:12:32;;;;;;;2.58;1.75;;;;;;;;;;4954358;29;20027;-81
2022/05/10 00:14:57;;;;;;;2.28;1.60;;;;;;;;;;4954275;28;20054;-80
2022/05/10 00:17:26;;;;;;;2.47;1.70;;;;;;;;;;4954372;28;20031;-81
2022/05/10 00:19:52;;;;;;;3.95;1.75;;;;;;;;;;4938308;29;20401;-79
2022/05/10 00:22:18;;;;;;;2.35;1.73;;;;;;;;;;4954115;28;20058;-80
2022/05/10 00:24:43;;;;;;;3.40;1.70;;;;;;;;;;4955472;28;20505;-79
2022/05/10 00:27:08;;;;;;;3.40;2.45;;;;;;;;;;4954108;29;20043;-81
2022/05/10 00:29:34;;;;;;;4.53;2.08;;;;;;;;;;4954181;29;20140;-81
2022/05/10 00:31:59;;;;;;;2.25;1.63;;;;;;;;;;4953950;29;20035;-79
2022/05/10 00:34:28;;;;;;;3.95;1.80;;;;;;;;;;4922653;29;20035;-80
2022/05/10 00:36:53;;;;;;;2.30;1.77;;;;;;;;;;4954215;29;20137;-82
2022/05/10 00:39:19;;;;;;;3.80;1.88;;;;;;;;;;4938108;29;20420;-79
2022/05/10 00:41:53;;;;;;;3.40;1.70;;;;;;;;;;4922262;29;20457;-80
2022/05/10 00:44:40;;;;;;;3.40;1.80;;;;;;;;;;4953955;29;20031;-81
2022/05/10 00:47:12;;;;;;;2.90;1.92;;;;;;;;;;4953668;28;20094;-80
2022/05/10 00:49:58;;;;;;;3.00;1.73;;;;;;;;;;4955133;28;20027;-80
2022/05/10 00:52:38;;;;;;;2.85;1.75;;;;;;;;;;4953639;29;20506;-80
2022/05/10 00:55:13;;;;;;;3.17;1.80;;;;;;;;;;4954905;28;20478;-80
2022/05/10 00:57:59;;;;;;;2.83;1.70;;;;;;;;;;4954887;28;20134;-79
2022/05/10 01:00:27;;;;;;;3.28;1.80;;;;;;;;;;4953474;29;20039;-80
2022/05/10 01:03:10;;;;;;;2.90;1.60;;;;;;;;;;4969491;28;20050;-80
2022/05/10 01:05:47;;;;;;;3.58;1.80;;;;;;;;;;4956404;28;20409;-80
2022/05/10 01:08:23;;;;;;;3.08;1.80;;;;;;;;;;4956776;28;20118;-80
2022/05/10 01:11:03;;;;;;;3.97;2.10;;;;;;;;;;4956423;28;20085;-80
2022/05/10 01:13:34;;;;;;;3.13;1.92;;;;;;;;;;4955898;28;20041;-79
2022/05/10 01:16:12;;;;;;;3.70;2.00;;;;;;;;;;4956488;28;20125;-79
2022/05/10 01:18:39;;;;;;;3.08;1.80;;;;;;;;;;4956397;28;20113;-79
2022/05/10 01:21:24;;;;;;;3.63;1.88;;;;;;;;;;4956412;28;20027;-80
2022/05/10 01:24:11;;;;;;;3.28;1.88;;;;;;;;;;4972160;28;20113;-81
2022/05/10 01:26:42;;;;;;;4.10;2.20;;;;;;;;;;4956137;28;20026;-82
2022/05/10 01:29:16;;;;;;;1.98;1.60;;;;;;;;;;4973735;28;20109;-81
2022/05/10 01:31:47;;;;;;;4.75;1.60;;;;;;;;;;4955894;28;20038;-81
2022/05/10 01:34:19;;;;;;;2.33;1.55;;;;;;;;;;4955742;28;20078;-80
2022/05/10 01:36:55;;;;;;;2.85;1.75;;;;;;;;;;4973357;28;20027;-80
2022/05/10 01:39:25;;;;;;;2.97;2.10;;;;;;;;;;4955869;28;20066;-80
2022/05/10 01:41:59;;;;;;;6.50;2.45;;;;;;;;;;4956027;28;20019;-80
2022/05/10 01:44:30;;;;;;;3.55;1.95;;;;;;;;;;4955082;28;20131;-80
2022/05/10 01:47:13;;;;;;;4.07;2.33;;;;;;;;;;4955775;28;20042;-80
2022/05/10 01:49:45;;;;;;;4.32;2.28;;;;;;;;;;4955863;28;20493;-80
2022/05/10 01:52:17;;;;;;;3.22;2.17;;;;;;;;;;4956035;28;20035;-80
2022/05/10 01:54:48;;;;;;;4.25;1.88;;;;;;;;;;4973086;28;20109;-79
2022/05/10 01:57:16;;;;;;;3.70;1.90;;;;;;;;;;4955571;28;20022;-80
2022/05/10 01:59:47;;;;;;;4.70;2.30;;;;;;;;;;4972000;28;20030;-80
2022/05/10 02:02:14;;;;;;;3.63;2.20;;;;;;;;;;4955432;28;20026;-79
2022/05/10 02:04:40;;;;;;;3.65;2.20;;;;;;;;;;4939375;28;20043;-79
2022/05/10 02:07:13;;;;;;;4.28;2.35;;;;;;;;;;4955272;28;20465;-79
2022/05/10 02:09:46;;;;;;;2.22;1.80;;;;;;;;;;4955486;28;20374;-80
2022/05/10 02:12:15;;;;;;;3.43;2.10;;;;;;;;;;4955512;28;20049;-79
2022/05/10 02:14:54;;;;;;;2.80;2.10;;;;;;;;;;4955129;28;20030;-80
2022/05/10 02:17:23;;;;;;;3.15;2.00;;;;;;;;;;4955409;28;20030;-80
2022/05/10 02:20:09;;;;;;;3.83;1.95;;;;;;;;;;4955298;28;20458;-80
2022/05/10 02:22:42;;;;;;;3.05;2.10;;;;;;;;;;4955169;28;20475;-78
2022/05/10 02:25:13;;;;;;;5.13;2.38;;;;;;;;;;4971228;28;20023;-80
2022/05/10 02:28:03;;;;;;;3.65;2.30;;;;;;;;;;4955169;28;20125;-80
2022/05/10 02:30:31;;;;;;;4.18;2.30;;;;;;;;;;4955688;28;20102;-81
2022/05/10 02:33:08;;;;;;;3.65;2.35;;;;;;;;;;4955307;28;20382;-81
2022/05/10 02:36:00;;;;;;;4.20;2.47;;;;;;;;;;4955654;28;20430;-79
2022/05/10 02:38:30;;;;;;;2.85;2.10;;;;;;;;;;4951100;28;20517;-79
2022/05/10 02:40:58;;;;;;;2.50;2.10;;;;;;;;;;4955323;28;20422;-79
2022/05/10 02:43:26;;;;;;;4.50;2.40;;;;;;;;;;4954987;28;20058;-81
2022/05/10 02:45:54;;;;;;;3.22;2.30;;;;;;;;;;4954867;28;20031;-80
2022/05/10 02:48:27;;;;;;;2.80;2.28;;;;;;;;;;4955687;28;20026;-80
2022/05/10 02:50:53;;;;;;;3.95;2.42;;;;;;;;;;4955011;28;20035;-79
2022/05/10 02:53:19;;;;;;;3.15;2.30;;;;;;;;;;4939250;28;20037;-79
2022/05/10 02:56:04;;;;;;;5.78;2.25;;;;;;;;;;4954934;28;20023;-80
2022/05/10 02:58:35;;;;;;;3.08;2.28;;;;;;;;;;4954914;28;20497;-80
2022/05/10 03:01:14;;;;;;;2.80;2.22;;;;;;;;;;4954881;28;20066;-79
2022/05/10 03:03:40;;;;;;;4.60;2.33;;;;;;;;;;4972289;28;20089;-79
2022/05/10 03:06:06;;;;;;;3.65;2.50;;;;;;;;;;4939194;28;20437;-80
2022/05/10 03:08:31;;;;;;;2.65;2.42;;;;;;;;;;4954474;28;20065;-79
2022/05/10 03:10:56;;;;;;;4.05;2.50;;;;;;;;;;4971877;28;20038;-79
2022/05/10 03:13:22;;;;;;;4.97;2.42;;;;;;;;;;4954680;28;20023;-79
2022/05/10 03:15:47;;;;;;;4.43;2.45;;;;;;;;;;4938669;28;20465;-81
2022/05/10 03:18:13;;;;;;;2.88;2.25;;;;;;;;;;4939211;28;20031;-81
2022/05/10 03:20:38;;;;;;;3.22;2.25;;;;;;;;;;4954847;28;20033;-82
2022/05/10 03:23:03;;;;;;;3.50;2.22;;;;;;;;;;4970910;28;20035;-81
2022/05/10 03:25:30;;;;;;;4.28;2.60;;;;;;;;;;4938871;28;20466;-82
2022/05/10 03:27:58;;;;;;;4.28;2.60;;;;;;;;;;4955110;28;20370;-81
2022/05/10 03:30:27;;;;;;;2.40;2.17;;;;;;;;;;4955413;28;20113;-81
2022/05/10 03:32:53;;;;;;;2.85;2.30;;;;;;;;;;4970781;28;20027;-81
2022/05/10 03:35:19;;;;;;;2.72;2.20;;;;;;;;;;4955646;28;20097;-81
2022/05/10 03:37:45;;;;;;;3.92;2.65;;;;;;;;;;4958264;28;20026;-82
2022/05/10 03:40:11;;;;;;;4.20;2.45;;;;;;;;;;4958371;28;20492;-82
2022/05/10 03:42:51;;;;;;;4.82;2.70;;;;;;;;;;4975895;28;20385;-82
2022/05/10 03:45:18;;;;;;;3.88;2.65;;;;;;;;;;4975428;28;20023;-82
2022/05/10 03:47:44;;;;;;;4.28;2.55;;;;;;;;;;4958455;28;20030;-82
2022/05/10 03:50:10;;;;;;;4.72;2.63;;;;;;;;;;4958097;28;20097;-82
2022/05/10 03:52:43;;;;;;;6.22;2.47;;;;;;;;;;4975618;28;20129;-81
2022/05/10 03:55:12;;;;;;;6.70;3.05;;;;;;;;;;4928142;28;20039;-82
2022/05/10 03:57:38;;;;;;;4.43;2.60;;;;;;;;;;4975267;28;20034;-81
2022/05/10 04:00:07;;;;;;;4.45;2.72;;;;;;;;;;4957675;28;20437;-82
2022/05/10 04:02:33;;;;;;;4.43;2.75;;;;;;;;;;4957845;28;20137;-82
2022/05/10 04:04:58;;;;;;;5.53;2.90;;;;;;;;;;4957547;28;20130;-82
2022/05/10 04:07:23;;;;;;;3.45;2.75;;;;;;;;;;4957708;28;20474;-80
2022/05/10 04:09:49;;;;;;;4.35;3.10;;;;;;;;;;4957483;28;20030;-82
2022/05/10 04:12:15;;;;;;;5.18;3.15;;;;;;;;;;4973927;28;20100;-82
2022/05/10 04:14:40;;;;;;;10.82;2.85;;;;;;;;;;4942207;28;20035;-81
2022/05/10 04:17:06;;;;;;;15.60;3.78;;;;;;;;;;4958109;28;20035;-83
2022/05/10 04:19:31;;;;;;;10.73;3.63;;;;;;;;;;4973633;28;20035;-81
2022/05/10 04:21:57;;;;;;;13.68;3.67;;;;;;;;;;4957840;28;20173;-81
2022/05/10 04:24:22;;;;;;;7.07;3.47;;;;;;;;;;4941609;28;20031;-81
2022/05/10 04:26:48;;;;;;;10.32;3.75;;;;;;;;;;4957417;28;20078;-80
2022/05/10 04:29:14;;;;;;;8.15;3.47;;;;;;;;;;4957469;28;20118;-82
2022/05/10 04:31:39;;;;;;;9.55;4.20;;;;;;;;;;4957419;28;20440;-82
2022/05/10 04:34:05;;;;;;;15.68;5.15;;;;;;;;;;4974104;28;20117;-83
2022/05/10 04:36:30;;;;;;;11.43;5.22;;;;;;;;;;4942145;28;20030;-81
2022/05/10 04:38:56;;;;;;;9.70;4.35;;;;;;;;;;4973995;28;20034;-80
2022/05/10 04:41:28;;;;;;;8.02;4.22;;;;;;;;;;4958086;28;20385;-80
2022/05/10 04:43:55;;;;;;;9.85;4.75;;;;;;;;;;4957807;28;20027;-80
2022/05/10 04:46:21;;;;;;;12.48;4.60;;;;;;;;;;4957575;28;20050;-78
2022/05/10 04:48:46;;;;;;;7.28;4.22;;;;;;;;;;4957779;28;20486;-80
2022/05/10 04:51:12;;;;;;;10.70;4.32;;;;;;;;;;4974996;28;20194;-80
2022/05/10 04:53:37;;;;;;;12.23;4.88;;;;;;;;;;4973799;28;20164;-80
2022/05/10 04:56:03;;;;;;;9.82;4.85;;;;;;;;;;4975228;28;20050;-83
2022/05/10 04:58:29;;;;;;;9.00;4.70;;;;;;;;;;4975349;28;20030;-83
2022/05/10 05:00:56;;;;;;;10.65;4.90;;;;;;;;;;4957706;28;20070;-84
2022/05/10 05:03:22;;;;;;;13.95;5.15;;;;;;;;;;4957730;28;20460;-82
2022/05/10 05:05:47;;;;;;;18.75;7.38;;;;;;;;;;4958048;28;20117;-81
2022/05/10 05:08:13;;;;;;;20.52;7.63;;;;;;;;;;4975479;28;20145;-81
2022/05/10 05:10:38;;;;;;;17.88;6.13;;;;;;;;;;4960544;28;20035;-81
2022/05/10 05:13:03;;;;;;;17.92;5.65;;;;;;;;;;4960507;28;20089;-81
2022/05/10 05:15:29;;;;;;;12.90;5.63;;;;;;;;;;4975986;28;20448;-80
2022/05/10 05:17:54;;;;;;;19.20;5.63;;;;;;;;;;4943737;28;20463;-80
2022/05/10 05:20:20;;;;;;;16.45;5.25;;;;;;;;;;4944561;28;20419;-81
2022/05/10 05:22:45;;;;;;;14.48;5.60;;;;;;;;;;4960193;28;20108;-82
2022/05/10 05:25:11;;;;;;;17.85;6.55;;;;;;;;;;4975544;28;20095;-81
2022/05/10 05:27:36;;;;;;;15.88;5.70;;;;;;;;;;4975759;28;20043;-80
2022/05/10 05:30:02;;;;;;;17.83;5.60;;;;;;;;;;4943512;28;20117;-80
2022/05/10 05:32:31;;;;;;;18.85;6.30;;;;;;;;;;4958381;28;20489;-80
2022/05/10 05:34:59;;;;;;;15.68;6.03;;;;;;;;;;4959579;28;20038;-80
2022/05/10 05:37:34;;;;;;;14.73;5.82;;;;;;;;;;4943194;28;20023;-80
2022/05/10 05:40:08;;;;;;;14.88;5.47;;;;;;;;;;4960294;28;20041;-80
2022/05/10 05:42:35;;;;;;;12.73;5.05;;;;;;;;;;4975548;28;20023;-80
2022/05/10 05:45:01;;;;;;;12.07;4.88;;;;;;;;;;4958817;28;20049;-79
2022/05/10 05:47:26;;;;;;;10.57;4.60;;;;;;;;;;4976084;28;20039;-80
2022/05/10 05:49:52;;;;;;;9.23;4.60;;;;;;;;;;4958859;28;20046;-80
2022/05/10 05:52:20;;;;;;;9.35;4.47;;;;;;;;;;4958367;28;20039;-80
2022/05/10 05:54:46;;;;;;;10.95;4.63;;;;;;;;;;4958153;28;20026;-79
2022/05/10 05:57:11;;;;;;;10.13;4.72;;;;;;;;;;4956570;28;20053;-80
2022/05/10 05:59:37;;;;;;;10.30;4.88;;;;;;;;;;4956109;28;20473;-80
2022/05/10 06:02:02;;;;;;;12.02;4.93;;;;;;;;;;4940484;28;20117;-80
2022/05/10 06:04:28;;;;;;;9.10;4.38;;;;;;;;;;4940468;28;20108;-80
2022/05/10 06:06:53;;;;;;;10.82;4.20;;;;;;;;;;4953223;29;20219;-80
2022/05/10 06:09:22;;;;;;;8.25;4.35;;;;;;;;;;4937425;29;20443;-80
2022/05/10 06:11:48;;;;;;;10.65;4.05;;;;;;;;;;4953321;29;20086;-80
2022/05/10 06:14:13;;;;;;;7.78;3.75;;;;;;;;;;4953057;28;20069;-80
2022/05/10 06:16:40;;;;;;;6.53;4.18;;;;;;;;;;4937461;29;20054;-80
2022/05/10 06:19:05;;;;;;;6.95;3.88;;;;;;;;;;4969168;28;20042;-79
2022/05/10 06:21:32;;;;;;;6.10;3.40;;;;;;;;;;4952888;29;20035;-79
2022/05/10 06:23:57;;;;;;;8.30;4.00;;;;;;;;;;4953076;28;20032;-79
2022/05/10 06:26:23;;;;;;;7.15;3.92;;;;;;;;;;4953024;29;20045;-79
2022/05/10 06:28:48;;;;;;;7.43;3.92;;;;;;;;;;4968884;28;20035;-80
2022/05/10 06:31:14;;;;;;;6.63;3.70;;;;;;;;;;4969163;28;20471;-80
2022/05/10 06:33:39;;;;;;;5.80;3.30;;;;;;;;;;4954376;28;20027;-79
2022/05/10 06:36:05;;;;;;;8.23;2.92;;;;;;;;;;4952982;29;20103;-79
2022/05/10 06:38:31;;;;;;;7.78;3.38;;;;;;;;;;4954326;28;20059;-79
2022/05/10 06:41:04;;;;;;;10.98;3.47;;;;;;;;;;4921603;29;20125;-79
2022/05/10 06:43:34;;;;;;;7.57;2.97;;;;;;;;;;4952883;29;20023;-78
2022/05/10 06:45:59;;;;;;;8.10;3.70;;;;;;;;;;4954044;28;20474;-79
2022/05/10 06:48:25;;;;;;;11.32;3.30;;;;;;;;;;4953953;28;20042;-79
2022/05/10 06:50:50;;;;;;;9.23;3.92;;;;;;;;;;4936602;29;20095;-79
2022/05/10 06:53:16;;;;;;;19.33;3.22;;;;;;;;;;4952619;28;20062;-80
2022/05/10 06:55:42;;;;;;;12.88;4.15;;;;;;;;;;4952666;29;20058;-79
2022/05/10 06:58:08;;;;;;;6.32;3.70;;;;;;;;;;4951811;28;20035;-81
2022/05/10 07:00:37;;;;;;;7.38;2.80;;;;;;;;;;4945950;29;20109;-80
2022/05/10 07:03:08;;;;;;;6.25;3.53;;;;;;;;;;4952341;29;20078;-83
2022/05/10 07:05:34;;;;;;;8.20;3.70;;;;;;;;;;4949800;29;20035;-82
2022/05/10 07:07:59;;;;;;;9.18;3.80;;;;;;;;;;4944498;29;20103;-81
2022/05/10 07:10:25;;;;;;;4.90;3.13;;;;;;;;;;4954795;28;20039;-80
2022/05/10 07:12:50;;;;;;;5.47;3.10;;;;;;;;;;4956204;29;20439;-81
2022/05/10 07:15:18;;;;;;;5.95;3.53;;;;;;;;;;4955655;28;20221;-81
2022/05/10 07:17:44;;;;;;;7.85;3.67;;;;;;;;;;4956020;29;20023;-81
2022/05/10 07:20:11;;;;;;;5.93;3.60;;;;;;;;;;4939866;29;20386;-80
2022/05/10 07:22:36;;;;;;;6.07;3.78;;;;;;;;;;4955715;29;20023;-81
2022/05/10 07:25:03;;;;;;;10.60;3.90;;;;;;;;;;4956963;28;20082;-82
2022/05/10 07:27:28;;;;;;;6.07;3.50;;;;;;;;;;4955735;28;20085;-81
2022/05/10 07:29:54;;;;;;;9.60;3.55;;;;;;;;;;4956121;29;20126;-83
2022/05/10 07:32:20;;;;;;;7.72;3.17;;;;;;;;;;4972391;28;20042;-81
2022/05/10 07:34:46;;;;;;;5.82;3.35;;;;;;;;;;4940249;29;20030;-82
2022/05/10 07:37:12;;;;;;;8.25;3.30;;;;;;;;;;4956137;29;20030;-82
2022/05/10 07:39:37;;;;;;;6.40;3.63;;;;;;;;;;4939916;29;20031;-82
2022/05/10 07:42:04;;;;;;;7.50;3.30;;;;;;;;;;4956310;29;20039;-82
2022/05/10 07:44:30;;;;;;;6.82;4.22;;;;;;;;;;4955950;28;20074;-82
2022/05/10 07:46:56;;;;;;;5.15;3.22;;;;;;;;;;4940085;29;20031;-82
2022/05/10 07:49:22;;;;;;;3.85;3.15;;;;;;;;;;4955929;29;20039;-83
2022/05/10 07:51:47;;;;;;;3.88;2.80;;;;;;;;;;4939760;29;20031;-83
2022/05/10 07:54:13;;;;;;;5.75;3.42;;;;;;;;;;4955629;29;20542;-83
2022/05/10 07:56:38;;;;;;;7.57;3.47;;;;;;;;;;4957001;28;20038;-82
2022/05/10 07:59:04;;;;;;;5.47;3.58;;;;;;;;;;4955614;29;20403;-82
2022/05/10 08:01:30;;;;;;;9.13;4.10;;;;;;;;;;4957104;28;20027;-82
2022/05/10 08:03:55;;;;;;;5.18;3.33;;;;;;;;;;4955833;29;20031;-82
2022/05/10 08:06:21;;;;;;;8.00;3.35;;;;;;;;;;4957094;28;20031;-83
2022/05/10 08:08:47;;;;;;;4.95;3.08;;;;;;;;;;4942548;28;20049;-82
2022/05/10 08:11:12;;;;;;;9.85;3.55;;;;;;;;;;4926692;28;20494;-82
2022/05/10 08:13:39;;;;;;;10.95;3.50;;;;;;;;;;4974394;28;20026;-82
2022/05/10 08:16:05;;;;;;;7.63;3.30;;;;;;;;;;4974256;28;20041;-82
2022/05/10 08:18:30;;;;;;;7.00;3.13;;;;;;;;;;4958662;28;20035;-82
2022/05/10 08:20:59;;;;;;;6.32;3.80;;;;;;;;;;4974010;28;20485;-82
2022/05/10 08:23:27;;;;;;;4.53;3.33;;;;;;;;;;4975642;28;20033;-82
2022/05/10 08:25:54;;;;;;;6.13;3.03;;;;;;;;;;4958163;28;20054;-82
2022/05/10 08:28:20;;;;;;;4.63;2.80;;;;;;;;;;4958513;28;20085;-82
2022/05/10 08:30:47;;;;;;;5.25;3.17;;;;;;;;;;4942561;28;20481;-82
2022/05/10 08:33:20;;;;;;;5.18;3.10;;;;;;;;;;4974367;28;20110;-82
2022/05/10 08:35:50;;;;;;;4.95;2.83;;;;;;;;;;4958085;28;20039;-82
2022/05/10 08:38:16;;;;;;;4.07;3.05;;;;;;;;;;4958354;28;20053;-83
2022/05/10 08:40:46;;;;;;;4.28;2.90;;;;;;;;;;4975395;28;20041;-83
2022/05/10 08:43:18;;;;;;;4.72;2.78;;;;;;;;;;4941702;28;20141;-82
2022/05/10 08:45:44;;;;;;;5.43;2.58;;;;;;;;;;4957815;28;20396;-81
2022/05/10 08:48:10;;;;;;;5.13;2.80;;;;;;;;;;4957574;28;20041;-80
2022/05/10 08:50:36;;;;;;;4.65;2.90;;;;;;;;;;4974859;28;20421;-82
2022/05/10 08:53:01;;;;;;;3.55;2.80;;;;;;;;;;4941770;28;20113;-81
2022/05/10 08:55:29;;;;;;;2.85;2.25;;;;;;;;;;4957510;28;20027;-81
2022/05/10 08:58:03;;;;;;;6.95;3.45;;;;;;;;;;4958230;28;20126;-84
2022/05/10 09:00:37;;;;;;;10.40;2.30;;;;;;;;;;4975452;28;20103;-84
2022/05/10 09:03:11;;;;;;;5.57;2.67;;;;;;;;;;4958075;28;20093;-80
2022/05/10 09:05:42;;;;;;;5.45;2.65;;;;;;;;;;4975093;28;20066;-80
2022/05/10 09:08:26;;;;;;;5.13;3.10;;;;;;;;;;4957314;28;20090;-81
2022/05/10 09:11:03;;;;;;;5.40;3.20;;;;;;;;;;4974859;28;20026;-82
2022/05/10 09:13:29;;;;;;;6.50;2.90;;;;;;;;;;4957354;28;20046;-84
2022/05/10 09:15:58;;;;;;;4.38;2.35;;;;;;;;;;4957348;28;20105;-84
2022/05/10 09:18:51;;;;;;;5.05;2.58;;;;;;;;;;4957301;28;20039;-81
2022/05/10 09:21:35;;;;;;;5.47;2.90;;;;;;;;;;4953685;28;20089;-82
2022/05/10 09:24:12;;;;;;;5.65;2.70;;;;;;;;;;4974401;28;20080;-83
2022/05/10 09:26:41;;;;;;;7.57;2.55;;;;;;;;;;4957011;28;20019;-82
2022/05/10 09:29:12;;;;;;;2.65;2.33;;;;;;;;;;4975018;28;20109;-81
2022/05/10 09:37:27;;;;;;;5.18;2.20;;;;;;;;;;4946128;28;20114;-83
2022/05/10 09:39:56;;;;;;;3.92;2.30;;;;;;;;;;4956810;28;20086;-83
2022/05/10 09:42:38;;;;;;;3.83;2.55;;;;;;;;;;4974369;28;20035;-83
2022/05/10 09:45:20;;;;;;;3.33;2.50;;;;;;;;;;4956967;28;20422;-83
2022/05/10 09:48:22;;;;;;;3.83;2.30;;;;;;;;;;4957248;28;20351;-83
2022/05/10 09:50:52;;;;;;;6.32;2.70;;;;;;;;;;4862065;29;20353;-83
2022/05/10 09:53:25;;;;;;;3.47;2.60;;;;;;;;;;4877226;29;20060;-82
2022/05/10 09:56:12;;;;;;;5.50;2.42;;;;;;;;;;4861674;29;20148;-82
2022/05/10 09:58:42;;;;;;;3.70;2.47;;;;;;;;;;4861808;29;20148;-82
2022/05/10 10:01:11;;;;;;;2.72;2.28;;;;;;;;;;4877381;29;20029;-83
2022/05/10 10:03:39;;;;;;;5.22;2.80;;;;;;;;;;4861495;29;20108;-83
2022/05/10 10:06:19;;;;;;;2.88;2.63;;;;;;;;;;4877208;29;20111;-83
2022/05/10 10:08:52;;;;;;;4.70;2.42;;;;;;;;;;4861170;29;20048;-83
2022/05/10 10:11:24;;;;;;;4.20;2.67;;;;;;;;;;4876839;29;20357;-83
2022/05/10 10:13:58;;;;;;;3.28;2.25;;;;;;;;;;4861097;29;20778;-82
2022/05/10 10:16:33;;;;;;;3.28;2.28;;;;;;;;;;4861032;29;20033;-83
2022/05/10 10:19:22;;;;;;;2.55;2.33;;;;;;;;;;4861262;29;20049;-83
2022/05/10 10:22:08;;;;;;;2.65;2.45;;;;;;;;;;4868270;29;20060;-83
2022/05/10 10:25:06;;;;;;;6.68;2.50;;;;;;;;;;4903514;28;20096;-83
2022/05/10 10:27:36;;;;;;;3.10;2.40;;;;;;;;;;4970064;28;20062;-84
2022/05/10 10:30:25;;;;;;;3.40;2.60;;;;;;;;;;4959755;28;20170;-83
2022/05/10 10:33:16;;;;;;;4.65;2.30;;;;;;;;;;4960384;28;20026;-83
2022/05/10 10:35:52;;;;;;;3.45;2.50;;;;;;;;;;4958773;28;20035;-82
2022/05/10 10:38:24;;;;;;;4.45;2.45;;;;;;;;;;4958955;28;20034;-82
2022/05/10 10:41:04;;;;;;;5.18;2.53;;;;;;;;;;4959012;28;20031;-82
2022/05/10 10:43:50;;;;;;;3.97;2.33;;;;;;;;;;4958097;28;20035;-81
2022/05/10 10:46:42;;;;;;;4.65;2.20;;;;;;;;;;4958246;28;20457;-81
2022/05/10 10:49:12;;;;;;;2.88;2.30;;;;;;;;;;4958597;28;20035;-81
2022/05/10 10:51:37;;;;;;;2.70;2.20;;;;;;;;;;4958286;28;20057;-81
2022/05/10 10:54:03;;;;;;;5.78;2.55;;;;;;;;;;4958682;28;20028;-81
2022/05/10 10:56:40;;;;;;;3.80;2.35;;;;;;;;;;4957452;28;20061;-82
2022/05/10 10:59:54;;;;;;;3.78;2.17;;;;;;;;;;4955868;28;20100;-81
2022/05/10 11:02:44;;;;;;;2.88;2.30;;;;;;;;;;4951974;28;20105;-81
2022/05/10 11:05:37;;;;;;;6.22;2.30;;;;;;;;;;4973088;28;20469;-81
2022/05/10 11:08:24;;;;;;;4.00;2.20;;;;;;;;;;4955450;28;20105;-82
2022/05/10 11:11:10;;;;;;;4.78;2.85;;;;;;;;;;4973130;28;20150;-82
2022/05/10 11:14:10;;;;;;;9.65;2.40;;;;;;;;;;4973043;28;20085;-82
2022/05/10 11:16:54;;;;;;;3.25;2.53;;;;;;;;;;4955697;28;20334;-83
2022/05/10 11:19:19;;;;;;;;;;;;;;;;;;4974083;28;20037;-82
2022/05/10 11:22:06;;;;;;;3.80;2.30;;;;;;;;;;4972331;28;19910;-80
2022/05/10 11:25:06;;;;;;;5.13;2.60;;;;;;;;;;4955540;28;20117;-80
2022/05/10 11:27:44;;;;;;;5.18;2.50;;;;;;;;;;4955913;28;20117;-81
2022/05/10 11:30:18;;;;;;;8.45;2.88;;;;;;;;;;4958645;28;20477;-80
2022/05/10 11:33:02;;;;;;;3.60;2.50;;;;;;;;;;4958601;28;20445;-80
2022/05/10 11:35:43;;;;;;;7.00;2.30;;;;;;;;;;4974114;28;20402;-80
2022/05/10 11:38:33;;;;;;;5.10;2.20;;;;;;;;;;4973960;28;20019;-80
2022/05/10 11:41:21;;;;;;;2.58;2.10;;;;;;;;;;4973864;28;20386;-80
2022/05/10 11:44:05;;;;;;;3.47;2.28;;;;;;;;;;4972528;28;20089;-79
2022/05/10 11:46:48;;;;;;;;;;;;;;;;;;4973180;28;20089;-78
2022/05/10 11:49:33;;;;;;;2.83;2.22;;;;;;;;;;4972050;28;20012;-79
2022/05/10 11:52:36;;;;;;;5.60;2.30;;;;;;;;;;4956090;28;20049;-78
2022/05/10 11:55:24;;;;;;;3.22;2.00;;;;;;;;;;4955509;28;20022;-78
2022/05/10 11:57:56;;;;;;;2.90;2.13;;;;;;;;;;4976075;28;20019;-78
2022/05/10 12:00:31;;;;;;;2.70;2.22;;;;;;;;;;4959107;28;20033;-81
2022/05/10 12:03:01;;;;;;;3.72;1.90;;;;;;;;;;4976506;28;20110;-83
2022/05/10 12:05:39;;;;;;;2.38;2.00;;;;;;;;;;4959175;28;20045;-81
2022/05/10 12:08:25;;;;;;;2.88;2.13;;;;;;;;;;4959073;28;20476;-82
2022/05/10 12:10:50;;;;;;;3.75;2.17;;;;;;;;;;4976343;28;20409;-82
2022/05/10 12:22:07;;;;;;;3.63;2.25;;;;;;;;;;4961273;28;20417;-82
2022/05/10 12:24:36;;;;;;;3.53;1.80;;;;;;;;;;4974178;28;20027;-84
2022/05/10 12:27:08;;;;;;;5.40;2.28;;;;;;;;;;4958489;28;20106;-83
2022/05/10 12:29:39;;;;;;;2.50;1.73;;;;;;;;;;4976107;28;20089;-83
2022/05/10 12:32:39;;;;;;;3.83;2.15;;;;;;;;;;4959872;28;20081;-83
2022/05/10 12:35:21;;;;;;;4.40;2.22;;;;;;;;;;4977499;28;20049;-82
2022/05/10 12:37:52;;;;;;;5.85;2.50;;;;;;;;;;4981211;28;20030;-84
2022/05/10 12:40:19;;;;;;;3.88;2.47;;;;;;;;;;4959394;28;20029;-81
2022/05/10 12:43:06;;;;;;;5.97;1.95;;;;;;;;;;4958015;28;20029;-81
2022/05/10 12:45:56;;;;;;;3.67;2.13;;;;;;;;;;4975330;28;20106;-80
2022/05/10 12:48:44;;;;;;;4.63;2.10;;;;;;;;;;4975100;28;20031;-82
2022/05/10 12:51:37;;;;;;;6.18;2.22;;;;;;;;;;4957648;28;20038;-81
2022/05/10 12:54:21;;;;;;;6.30;2.20;;;;;;;;;;4975042;28;20022;-81
2022/05/10 12:57:06;;;;;;;4.90;2.05;;;;;;;;;;4957553;28;20458;-82
2022/05/10 12:59:37;;;;;;;3.45;2.00;;;;;;;;;;4975049;28;20122;-82
2022/05/10 13:02:04;;;;;;;3.60;2.20;;;;;;;;;;4957476;28;20077;-81
2022/05/10 13:04:31;;;;;;;2.88;1.90;;;;;;;;;;4941063;28;20027;-82
2022/05/10 13:07:10;;;;;;;6.85;2.83;;;;;;;;;;4957020;28;20122;-83
2022/05/10 13:09:42;;;;;;;3.45;2.35;;;;;;;;;;4956886;28;20047;-82
2022/05/10 13:12:09;;;;;;;4.93;2.08;;;;;;;;;;4957397;28;20027;-82
2022/05/10 13:14:46;;;;;;;4.20;2.58;;;;;;;;;;4957221;28;20046;-82
2022/05/10 13:17:20;;;;;;;4.78;2.72;;;;;;;;;;4957586;28;20085;-80
2022/05/10 13:19:46;;;;;;;3.97;2.20;;;;;;;;;;4957550;28;20122;-80
2022/05/10 13:22:15;;;;;;;2.58;2.17;;;;;;;;;;4957184;28;20109;-80
2022/05/10 13:24:45;;;;;;;3.40;2.15;;;;;;;;;;4957119;28;20082;-80
2022/05/10 13:27:34;;;;;;;5.13;2.15;;;;;;;;;;4957258;28;20533;-80
2022/05/10 13:30:14;;;;;;;6.10;2.63;;;;;;;;;;4956880;28;20485;-80
2022/05/10 13:32:42;;;;;;;4.65;2.80;;;;;;;;;;4956902;28;20027;-80
2022/05/10 13:35:07;;;;;;;4.07;2.75;;;;;;;;;;4974432;28;20307;-81
2022/05/10 13:37:35;;;;;;;3.10;2.30;;;;;;;;;;4956803;28;20030;-81
2022/05/10 13:40:12;;;;;;;4.82;2.40;;;;;;;;;;4957007;28;20035;-80
2022/05/10 13:42:42;;;;;;;4.93;2.50;;;;;;;;;;4956976;28;20030;-80
2022/05/10 13:45:10;;;;;;;2.65;2.13;;;;;;;;;;4974006;28;20057;-80
2022/05/10 13:47:35;;;;;;;4.55;2.28;;;;;;;;;;4956800;28;20026;-82
2022/05/10 13:50:01;;;;;;;5.45;2.17;;;;;;;;;;4940802;28;20371;-82
2022/05/10 13:52:44;;;;;;;5.88;2.20;;;;;;;;;;4925135;28;20474;-81
2022/05/10 13:55:16;;;;;;;6.72;2.47;;;;;;;;;;4956501;28;20041;-80
2022/05/10 13:57:59;;;;;;;7.03;2.20;;;;;;;;;;4972526;28;20088;-81
2022/05/10 14:00:31;;;;;;;4.95;2.25;;;;;;;;;;4956798;28;20030;-82
2022/05/10 14:02:57;;;;;;;3.38;2.08;;;;;;;;;;4956062;28;20038;-83
2022/05/10 14:05:25;;;;;;;6.50;2.20;;;;;;;;;;4956134;28;20466;-82
2022/05/10 14:08:02;;;;;;;2.92;2.10;;;;;;;;;;4972112;28;20046;-81
2022/05/10 14:10:31;;;;;;;1.92;1.73;;;;;;;;;;4956001;28;20130;-81
2022/05/10 14:12:59;;;;;;;4.03;2.03;;;;;;;;;;4973472;28;20038;-81
2022/05/10 14:15:35;;;;;;;5.40;2.47;;;;;;;;;;4956334;28;20027;-83
2022/05/10 14:18:09;;;;;;;5.15;2.13;;;;;;;;;;4974123;28;20030;-82
2022/05/10 14:20:40;;;;;;;4.55;2.20;;;;;;;;;;4955914;28;20160;-82
2022/05/10 14:23:10;;;;;;;5.50;1.83;;;;;;;;;;4956322;28;20038;-82
2022/05/10 14:25:36;;;;;;;2.42;2.10;;;;;;;;;;4958542;28;20415;-82
2022/05/10 14:30:46;;;;;;;3.08;1.90;;;;;;;;;;4959123;28;20030;-82
2022/05/10 14:33:18;;;;;;;3.70;1.67;;;;;;;;;;4958750;28;20034;-82
2022/05/10 14:35:48;;;;;;;3.03;1.85;;;;;;;;;;4974998;28;20085;-81
2022/05/10 14:38:18;;;;;;;3.20;1.80;;;;;;;;;;4958378;28;20018;-82
2022/05/10 14:40:46;;;;;;;2.33;1.85;;;;;;;;;;4959276;28;20031;-82
2022/05/10 14:43:28;;;;;;;4.15;2.00;;;;;;;;;;4974644;28;20510;-82
2022/05/10 14:45:55;;;;;;;4.10;1.80;;;;;;;;;;4973469;28;20109;-82
2022/05/10 14:48:37;;;;;;;4.00;2.00;;;;;;;;;;4942158;28;20031;-82
2022/05/10 14:51:08;;;;;;;12.52;1.83;;;;;;;;;;4958597;28;20027;-82
2022/05/10 14:53:51;;;;;;;6.85;2.75;;;;;;;;;;4944023;28;20027;-82
2022/05/10 14:56:19;;;;;;;6.75;1.90;;;;;;;;;;4959473;28;20081;-84
2022/05/10 14:58:47;;;;;;;3.35;1.70;;;;;;;;;;4958521;28;20031;-83
2022/05/10 15:01:24;;;;;;;5.20;1.90;;;;;;;;;;4958259;28;20022;-82
2022/05/10 15:04:19;;;;;;;2.20;1.42;;;;;;;;;;4959255;28;20037;-82
2022/05/10 15:06:46;;;;;;;2.33;1.55;;;;;;;;;;4958990;28;20031;-84
2022/05/10 15:09:12;;;;;;;4.78;1.80;;;;;;;;;;4958881;28;20432;-82
2022/05/10 15:14:27;;;;;;;14.57;2.15;;;;;;;;;;4961800;28;20038;-82
2022/05/10 15:16:53;;;;;;;6.35;2.03;;;;;;;;;;4975293;28;20374;-82
2022/05/10 15:19:18;;;;;;;10.10;2.13;;;;;;;;;;4958086;28;20035;-83
2022/05/10 15:21:44;;;;;;;3.33;1.80;;;;;;;;;;4958705;28;20137;-83
2022/05/10 15:24:10;;;;;;;5.20;1.90;;;;;;;;;;4975687;28;20450;-83
2022/05/10 15:26:42;;;;;;;4.30;1.60;;;;;;;;;;4958275;28;20450;-83
2022/05/10 15:29:14;;;;;;;8.68;1.90;;;;;;;;;;4972723;28;20034;-82